createdAt,value
2018-03-04T00:00:29.681Z,2.50
2018-03-04T00:02:57.173Z,2.50
2018-03-04T00:05:25.434Z,2.50
2018-03-04T00:07:52.914Z,2.50
2018-03-04T00:10:20.417Z,2.60
2018-03-04T00:12:47.903Z,2.60
2018-03-04T00:15:15.388Z,2.60
2018-03-04T00:17:42.896Z,2.60
2018-03-04T00:20:10.379Z,2.60
2018-03-04T00:22:41.511Z,2.70
2018-03-04T00:25:08.986Z,2.60
2018-03-04T00:27:37.281Z,2.60
2018-03-04T00:30:04.755Z,2.70
2018-03-04T00:32:32.355Z,2.60
2018-03-04T00:34:59.928Z,2.60
2018-03-04T00:37:27.508Z,2.60
2018-03-04T00:39:55.042Z,2.60
2018-03-04T00:42:22.557Z,2.60
2018-03-04T00:44:50.202Z,2.60
2018-03-04T00:47:18.447Z,2.70
2018-03-04T00:49:45.934Z,2.60
2018-03-04T00:52:13.416Z,2.70
2018-03-04T00:54:40.992Z,2.70
2018-03-04T00:57:08.574Z,2.70
2018-03-04T00:59:36.138Z,2.60
2018-03-04T01:02:03.636Z,2.60
2018-03-04T01:04:31.932Z,2.70
2018-03-04T01:06:59.504Z,2.70
2018-03-04T01:09:26.987Z,2.70
2018-03-04T01:11:54.546Z,2.70
2018-03-04T01:14:22.027Z,2.70
2018-03-04T01:16:49.560Z,2.70
2018-03-04T01:19:17.059Z,2.70
2018-03-04T01:21:44.531Z,2.70
2018-03-04T01:24:12.102Z,2.70
2018-03-04T01:26:39.634Z,2.70
2018-03-04T01:29:07.152Z,2.70
2018-03-04T01:31:34.635Z,2.70
2018-03-04T01:34:02.148Z,2.70
2018-03-04T01:36:29.610Z,2.80
2018-03-04T01:38:57.122Z,2.80
2018-03-04T01:41:24.666Z,2.80
2018-03-04T01:43:52.150Z,2.80
2018-03-04T01:46:20.399Z,2.70
2018-03-04T01:48:47.892Z,2.70
2018-03-04T01:51:15.462Z,2.70
2018-03-04T01:53:43.035Z,2.70
2018-03-04T01:56:10.556Z,2.80
2018-03-04T01:58:38.031Z,2.80
2018-03-04T02:01:05.520Z,2.80
2018-03-04T02:03:32.999Z,2.80
2018-03-04T02:06:00.592Z,2.90
2018-03-04T02:08:28.071Z,2.90
2018-03-04T02:10:56.331Z,2.90
2018-03-04T02:13:23.851Z,2.90
2018-03-04T02:15:51.327Z,2.90
2018-03-04T02:18:18.814Z,2.90
2018-03-04T02:20:46.291Z,2.90
2018-03-04T02:23:13.779Z,2.90
2018-03-04T02:25:41.255Z,3.00
2018-03-04T02:28:08.738Z,3.00
2018-03-04T02:30:37.020Z,3.00
2018-03-04T02:33:04.519Z,3.00
2018-03-04T02:35:32.783Z,3.10
2018-03-04T02:38:00.264Z,3.10
2018-03-04T02:40:27.759Z,3.10
2018-03-04T02:42:55.308Z,3.10
2018-03-04T02:45:23.622Z,3.10
2018-03-04T02:47:51.196Z,3.00
2018-03-04T02:50:18.683Z,3.10
2018-03-04T02:52:46.158Z,3.00
2018-03-04T02:55:13.674Z,3.10
2018-03-04T02:57:41.154Z,3.10
2018-03-04T03:00:09.411Z,3.10
2018-03-04T03:02:36.904Z,3.10
2018-03-04T03:05:04.380Z,3.10
2018-03-04T03:07:32.634Z,3.10
2018-03-04T03:10:00.131Z,3.10
2018-03-04T03:12:27.618Z,3.10
2018-03-04T03:14:55.890Z,3.10
2018-03-04T03:17:23.495Z,3.10
2018-03-04T03:19:51.034Z,3.20
2018-03-04T03:22:19.291Z,3.20
2018-03-04T03:24:46.779Z,3.10
2018-03-04T03:27:14.255Z,3.10
2018-03-04T03:29:41.835Z,3.10
2018-03-04T03:32:09.310Z,3.20
2018-03-04T03:34:36.794Z,3.20
2018-03-04T03:37:05.059Z,3.20
2018-03-04T03:39:32.552Z,3.20
2018-03-04T03:42:00.811Z,3.20
2018-03-04T03:44:28.288Z,3.20
2018-03-04T03:46:55.862Z,3.20
2018-03-04T03:49:23.334Z,3.30
2018-03-04T03:51:50.823Z,3.20
2018-03-04T03:54:19.066Z,3.20
2018-03-04T03:56:46.671Z,3.20
2018-03-04T03:59:14.242Z,3.20
2018-03-04T04:01:41.812Z,3.30
2018-03-04T04:04:09.295Z,3.20
2018-03-04T04:06:37.567Z,3.20
2018-03-04T04:09:05.051Z,3.20
2018-03-04T04:11:33.302Z,3.30
2018-03-04T04:14:00.905Z,3.30
2018-03-04T04:16:28.470Z,3.20
2018-03-04T04:18:56.754Z,3.30
2018-03-04T04:21:24.226Z,3.30
2018-03-04T04:23:51.699Z,3.30
2018-03-04T04:26:19.186Z,3.30
2018-03-04T04:28:47.498Z,3.30
2018-03-04T04:31:14.994Z,3.30
2018-03-04T04:33:42.551Z,3.30
2018-03-04T04:36:10.043Z,3.30
2018-03-04T04:38:37.526Z,3.30
2018-03-04T04:41:05.015Z,3.30
2018-03-04T04:43:32.492Z,3.30
2018-03-04T04:46:00.739Z,3.30
2018-03-04T04:48:28.274Z,3.30
2018-03-04T04:50:55.819Z,3.30
2018-03-04T04:53:23.318Z,3.30
2018-03-04T04:55:50.801Z,3.30
2018-03-04T04:58:18.323Z,3.40
2018-03-04T05:00:45.798Z,3.40
2018-03-04T05:05:16.836Z,3.40
2018-03-04T05:07:44.312Z,3.40
2018-03-04T05:10:11.814Z,3.40
2018-03-04T05:12:39.287Z,3.40
2018-03-04T05:15:06.774Z,3.40
2018-03-04T05:17:35.039Z,3.40
2018-03-04T05:20:02.611Z,3.40
2018-03-04T05:22:30.121Z,3.40
2018-03-04T05:24:57.660Z,3.40
2018-03-04T05:27:25.226Z,3.40
2018-03-04T05:29:52.798Z,3.30
2018-03-04T05:32:20.282Z,3.30
2018-03-04T05:34:48.525Z,3.20
2018-03-04T05:37:16.024Z,3.20
2018-03-04T05:39:43.502Z,3.20
2018-03-04T05:42:11.079Z,3.10
2018-03-04T05:44:39.359Z,3.20
2018-03-04T05:47:06.934Z,3.20
2018-03-04T05:49:34.427Z,3.20
2018-03-04T05:52:02.674Z,3.30
2018-03-04T05:54:30.166Z,3.30
2018-03-04T05:56:57.727Z,3.30
2018-03-04T05:59:25.223Z,3.30
2018-03-04T06:01:53.495Z,3.30
2018-03-04T06:04:20.976Z,3.20
2018-03-04T06:06:49.355Z,3.30
2018-03-04T06:09:16.929Z,3.30
2018-03-04T06:11:44.422Z,3.30
2018-03-04T06:14:11.903Z,3.40
2018-03-04T06:16:39.474Z,3.40
2018-03-04T06:19:06.967Z,3.40
2018-03-04T06:21:34.465Z,3.40
2018-03-04T06:24:01.951Z,3.40
2018-03-04T06:26:29.555Z,3.40
2018-03-04T06:28:57.044Z,3.40
2018-03-04T06:31:24.602Z,3.40
2018-03-04T06:33:52.095Z,3.50
2018-03-04T06:36:19.570Z,3.40
2018-03-04T06:38:47.055Z,3.50
2018-03-04T06:41:14.530Z,3.40
2018-03-04T06:43:42.121Z,3.40
2018-03-04T06:46:09.595Z,3.40
2018-03-04T06:48:37.070Z,3.30
2018-03-04T06:51:05.348Z,3.30
2018-03-04T06:53:32.915Z,3.30
2018-03-04T06:56:00.494Z,3.30
2018-03-04T06:58:27.975Z,3.40
2018-03-04T07:00:56.227Z,3.50
2018-03-04T07:03:23.702Z,3.50
2018-03-04T07:05:51.199Z,3.50
2018-03-04T07:08:18.762Z,3.50
2018-03-04T07:10:46.246Z,3.50
2018-03-04T07:13:14.508Z,3.60
2018-03-04T07:15:41.996Z,3.50
2018-03-04T07:18:09.487Z,3.60
2018-03-04T07:20:37.726Z,3.70
2018-03-04T07:23:05.231Z,3.70
2018-03-04T07:25:33.482Z,3.90
2018-03-04T07:28:01.013Z,3.90
2018-03-04T07:30:28.488Z,3.90
2018-03-04T07:32:55.968Z,4.00
2018-03-04T07:35:23.462Z,4.10
2018-03-04T07:37:50.938Z,4.10
2018-03-04T07:40:18.535Z,4.20
2018-03-04T07:42:46.008Z,4.30
2018-03-04T07:45:13.515Z,4.40
2018-03-04T07:47:41.081Z,4.40
2018-03-04T07:50:08.620Z,4.40
2018-03-04T07:52:36.200Z,4.40
2018-03-04T07:55:04.452Z,4.40
2018-03-04T07:57:32.051Z,4.40
2018-03-04T07:59:59.560Z,4.40
2018-03-04T08:02:27.055Z,4.50
2018-03-04T08:04:54.571Z,4.50
2018-03-04T08:07:22.052Z,4.60
2018-03-04T08:09:50.303Z,4.60
2018-03-04T08:12:17.800Z,4.60
2018-03-04T08:14:45.367Z,4.60
2018-03-04T08:17:12.942Z,4.60
2018-03-04T08:19:40.447Z,4.60
2018-03-04T08:22:07.940Z,4.60
2018-03-04T08:24:38.379Z,4.60
2018-03-04T08:27:17.873Z,4.60
2018-03-04T08:29:45.363Z,4.70
2018-03-04T08:32:13.631Z,4.70
2018-03-04T08:34:41.132Z,4.70
2018-03-04T08:37:08.615Z,4.70
2018-03-04T08:39:36.116Z,4.70
2018-03-04T08:42:03.732Z,4.70
2018-03-04T08:44:31.974Z,4.90
2018-03-04T08:46:59.448Z,4.90
2018-03-04T08:49:27.065Z,5.00
2018-03-04T08:51:55.303Z,4.90
2018-03-04T08:54:22.803Z,4.80
2018-03-04T08:56:50.300Z,4.90
2018-03-04T08:59:18.543Z,5.00
2018-03-04T09:01:46.023Z,4.90
2018-03-04T09:04:13.537Z,5.00
2018-03-04T09:06:41.185Z,5.10
2018-03-04T09:09:09.436Z,5.30
2018-03-04T09:11:37.043Z,5.30
2018-03-04T09:14:04.524Z,5.30
2018-03-04T09:16:32.779Z,5.60
2018-03-04T09:19:00.282Z,5.60
2018-03-04T09:21:28.588Z,6.80
2018-03-04T09:23:56.094Z,6.70
2018-03-04T09:26:23.594Z,7.30
2018-03-04T09:28:51.071Z,7.50
2018-03-04T09:31:18.559Z,7.20
2018-03-04T09:33:46.825Z,7.30
2018-03-04T09:36:14.308Z,7.20
2018-03-04T09:38:42.564Z,7.30
2018-03-04T09:41:10.090Z,7.30
2018-03-04T09:43:37.608Z,7.10
2018-03-04T09:46:05.139Z,6.90
2018-03-04T09:48:32.678Z,6.70
2018-03-04T09:51:00.250Z,6.60
2018-03-04T09:53:27.730Z,6.60
2018-03-04T09:55:56.030Z,6.50
2018-03-04T09:58:24.277Z,6.50
2018-03-04T10:00:51.812Z,6.50
2018-03-04T10:03:19.322Z,6.50
2018-03-04T10:05:46.824Z,6.60
2018-03-04T10:08:15.068Z,6.70
2018-03-04T10:10:42.602Z,6.70
2018-03-04T10:13:10.138Z,6.80
2018-03-04T10:15:37.641Z,7.10
2018-03-04T10:18:05.213Z,7.20
2018-03-04T10:20:32.752Z,8.30
2018-03-04T10:23:00.365Z,9.80
2018-03-04T10:25:27.883Z,10.30
2018-03-04T10:27:55.375Z,9.80
2018-03-04T10:30:22.944Z,9.50
2018-03-04T10:32:50.515Z,9.50
2018-03-04T10:35:17.999Z,10.40
2018-03-04T10:37:46.255Z,12.00
2018-03-04T10:40:14.520Z,12.00
2018-03-04T10:42:42.040Z,12.70
2018-03-04T10:45:09.519Z,12.90
2018-03-04T10:47:37.824Z,11.40
2018-03-04T10:50:05.312Z,11.40
2018-03-04T10:52:32.803Z,10.90
2018-03-04T10:55:01.161Z,11.60
2018-03-04T10:57:28.644Z,13.00
2018-03-04T10:59:56.131Z,13.20
2018-03-04T11:02:23.635Z,13.00
2018-03-04T11:04:51.896Z,13.80
2018-03-04T11:07:19.380Z,13.80
2018-03-04T11:09:46.908Z,14.20
2018-03-04T11:12:14.472Z,13.40
2018-03-04T11:14:41.955Z,13.10
2018-03-04T11:17:09.492Z,12.90
2018-03-04T11:19:37.776Z,11.90
2018-03-04T11:22:05.265Z,11.90
2018-03-04T11:24:33.555Z,13.10
2018-03-04T11:27:01.803Z,13.50
2018-03-04T11:29:29.395Z,13.50
2018-03-04T11:31:57.664Z,15.40
2018-03-04T11:34:25.152Z,15.40
2018-03-04T11:36:52.658Z,15.50
2018-03-04T11:39:20.242Z,14.80
2018-03-04T11:41:47.732Z,14.00
2018-03-04T11:44:15.260Z,13.60
2018-03-04T11:46:43.177Z,13.00
2018-03-04T11:49:10.710Z,13.40
2018-03-04T11:51:38.220Z,13.00
2018-03-04T11:54:05.704Z,13.50
2018-03-04T11:56:33.200Z,14.10
2018-03-04T11:59:00.678Z,14.40
2018-03-04T12:01:29.688Z,14.90
2018-03-04T12:03:57.186Z,14.90
2018-03-04T12:06:25.460Z,16.30
2018-03-04T12:08:52.967Z,16.30
2018-03-04T12:11:20.509Z,16.20
2018-03-04T12:13:48.824Z,16.70
2018-03-04T12:16:16.374Z,16.70
2018-03-04T12:18:44.622Z,16.00
2018-03-04T12:21:12.240Z,16.00
2018-03-04T12:23:40.511Z,15.60
2018-03-04T12:26:08.807Z,15.80
2018-03-04T12:28:37.051Z,15.50
2018-03-04T12:31:04.536Z,15.50
2018-03-04T12:33:32.028Z,15.80
2018-03-04T12:35:59.511Z,16.10
2018-03-04T12:38:27.796Z,17.20
2018-03-04T12:40:55.275Z,17.20
2018-03-04T12:43:23.559Z,18.70
2018-03-04T12:45:51.847Z,18.30
2018-03-04T12:48:20.136Z,18.10
2018-03-04T12:50:48.420Z,18.60
2018-03-04T12:53:16.667Z,18.80
2018-03-04T12:55:44.165Z,18.80
2018-03-04T12:58:12.499Z,19.00
2018-03-04T13:00:40.036Z,19.00
2018-03-04T13:03:09.051Z,18.70
2018-03-04T13:05:37.313Z,19.10
2018-03-04T13:08:04.851Z,19.10
2018-03-04T13:10:33.085Z,19.20
2018-03-04T13:13:00.678Z,19.00
2018-03-04T13:15:28.947Z,18.80
2018-03-04T13:17:56.427Z,18.80
2018-03-04T13:20:24.686Z,19.00
2018-03-04T13:22:52.187Z,19.10
2018-03-04T13:25:19.693Z,18.80
2018-03-04T13:27:47.195Z,18.90
2018-03-04T13:30:14.684Z,18.50
2018-03-04T13:32:42.167Z,17.90
2018-03-04T13:35:09.660Z,17.10
2018-03-04T13:37:37.907Z,16.50
2018-03-04T13:40:06.211Z,16.30
2018-03-04T13:42:33.699Z,16.30
2018-03-04T13:45:01.971Z,15.20
2018-03-04T13:47:29.468Z,15.10
2018-03-04T13:49:56.947Z,14.90
2018-03-04T13:52:24.455Z,14.80
2018-03-04T13:54:51.948Z,14.80
2018-03-04T13:57:19.531Z,14.70
2018-03-04T13:59:47.027Z,14.60
2018-03-04T14:02:14.574Z,14.40
2018-03-04T14:04:42.849Z,13.90
2018-03-04T14:07:10.439Z,13.90
2018-03-04T14:09:38.693Z,13.40
2018-03-04T14:12:06.218Z,13.40
2018-03-04T14:14:33.699Z,13.00
2018-03-04T14:17:01.207Z,12.90
2018-03-04T14:19:28.730Z,13.20
2018-03-04T14:21:56.211Z,13.20
2018-03-04T14:24:23.779Z,13.40
2018-03-04T14:26:51.277Z,13.40
2018-03-04T14:29:18.821Z,13.30
2018-03-04T14:31:46.313Z,13.00
2018-03-04T14:34:13.815Z,12.90
2018-03-04T14:36:41.511Z,12.80
2018-03-04T14:39:09.763Z,12.70
2018-03-04T14:41:37.287Z,12.70
2018-03-04T14:44:05.539Z,12.50
2018-03-04T14:46:33.135Z,12.40
2018-03-04T14:49:01.399Z,12.60
2018-03-04T14:51:28.996Z,12.50
2018-03-04T14:53:57.376Z,12.40
2018-03-04T14:56:24.863Z,12.40
2018-03-04T14:58:53.169Z,12.40
2018-03-04T15:01:20.668Z,12.40
2018-03-04T15:03:48.151Z,12.20
2018-03-04T15:06:15.651Z,12.10
2018-03-04T15:08:44.640Z,12.00
2018-03-04T15:11:12.232Z,12.10
2018-03-04T15:13:40.484Z,11.90
2018-03-04T15:16:07.988Z,11.90
2018-03-04T15:18:35.490Z,11.90
2018-03-04T15:21:02.983Z,11.80
2018-03-04T15:23:30.537Z,11.80
2018-03-04T15:25:57.987Z,11.70
2018-03-04T15:28:26.267Z,11.50
2018-03-04T15:30:54.521Z,11.40
2018-03-04T15:33:22.019Z,11.40
2018-03-04T15:35:49.502Z,11.30
2018-03-04T15:38:17.825Z,11.20
2018-03-04T15:40:45.351Z,11.20
2018-03-04T15:43:12.832Z,11.10
2018-03-04T15:45:41.104Z,11.10
2018-03-04T15:48:08.582Z,11.10
2018-03-04T15:50:36.863Z,10.90
2018-03-04T15:53:04.435Z,10.90
2018-03-04T15:55:31.912Z,10.90
2018-03-04T15:58:00.164Z,10.80
2018-03-04T16:00:27.643Z,10.70
2018-03-04T16:02:55.136Z,10.70
2018-03-04T16:05:23.423Z,10.70
2018-03-04T16:07:52.446Z,10.70
2018-03-04T16:10:20.691Z,10.70
2018-03-04T16:12:48.292Z,10.70
2018-03-04T16:15:15.868Z,10.70
2018-03-04T16:17:43.353Z,10.50
2018-03-04T16:20:11.638Z,10.40
2018-03-04T16:22:39.883Z,10.40
2018-03-04T16:25:07.384Z,10.40
2018-03-04T16:27:34.872Z,10.30
2018-03-04T16:30:03.144Z,10.30
2018-03-04T16:32:30.623Z,10.20
2018-03-04T16:34:58.940Z,10.20
2018-03-04T16:37:26.441Z,10.20
2018-03-04T16:39:53.976Z,10.10
2018-03-04T16:42:21.513Z,10.10
2018-03-04T16:44:49.120Z,10.10
2018-03-04T16:47:16.671Z,10.10
2018-03-04T16:49:44.931Z,10.00
2018-03-04T16:52:12.457Z,10.00
2018-03-04T16:54:39.955Z,10.00
2018-03-04T16:57:07.435Z,9.90
2018-03-04T16:59:35.040Z,9.90
2018-03-04T17:02:02.539Z,9.90
2018-03-04T17:04:30.412Z,9.90
2018-03-04T17:06:57.887Z,9.80
2018-03-04T17:09:25.363Z,9.90
2018-03-04T17:11:52.854Z,9.80
2018-03-04T17:14:20.335Z,9.80
2018-03-04T17:16:47.835Z,9.80
2018-03-04T17:19:15.315Z,9.80
2018-03-04T17:21:43.625Z,9.60
2018-03-04T17:24:11.116Z,9.60
2018-03-04T17:26:38.666Z,9.50
2018-03-04T17:29:06.166Z,9.40
2018-03-04T17:31:33.709Z,9.40
2018-03-04T17:34:01.254Z,9.40
2018-03-04T17:36:28.731Z,9.30
2018-03-04T17:38:56.999Z,9.30
2018-03-04T17:41:24.475Z,9.20
2018-03-04T17:43:51.983Z,9.30
2018-03-04T17:46:19.552Z,9.30
2018-03-04T17:48:47.107Z,9.20
2018-03-04T17:51:15.369Z,9.20
2018-03-04T17:53:43.638Z,9.20
2018-03-04T17:56:11.140Z,9.10
2018-03-04T17:58:38.619Z,9.20
2018-03-04T18:01:06.900Z,9.20
2018-03-04T18:03:34.400Z,9.10
2018-03-04T18:06:02.792Z,9.10
2018-03-04T18:08:30.291Z,9.10
2018-03-04T18:10:57.774Z,9.10
2018-03-04T18:13:25.290Z,9.10
2018-03-04T18:15:52.750Z,9.00
2018-03-04T18:18:21.031Z,9.00
2018-03-04T18:20:48.640Z,9.00
2018-03-04T18:23:17.036Z,9.00
2018-03-04T18:25:44.538Z,9.00
2018-03-04T18:28:12.011Z,9.00
2018-03-04T18:30:39.511Z,9.00
2018-03-04T18:33:07.016Z,8.90
2018-03-04T18:35:34.524Z,8.90
2018-03-04T18:38:02.003Z,8.90
2018-03-04T18:40:29.484Z,8.80
2018-03-04T18:42:56.982Z,8.80
2018-03-04T18:45:24.472Z,8.80
2018-03-04T18:47:52.736Z,8.70
2018-03-04T18:50:20.327Z,8.70
2018-03-04T18:52:48.603Z,8.70
2018-03-04T18:55:16.082Z,8.70
2018-03-04T18:57:43.591Z,8.60
2018-03-04T19:00:11.094Z,8.60
2018-03-04T19:02:38.571Z,8.60
2018-03-04T19:05:06.063Z,8.60
2018-03-04T19:07:33.656Z,8.70
2018-03-04T19:10:01.958Z,8.60
2018-03-04T19:12:29.503Z,8.60
2018-03-04T19:14:57.110Z,8.60
2018-03-04T19:17:24.599Z,8.60
2018-03-04T19:19:52.084Z,8.60
2018-03-04T19:22:19.615Z,8.60
2018-03-04T19:24:47.189Z,8.60
2018-03-04T19:27:14.744Z,8.60
2018-03-04T19:29:43.040Z,8.70
2018-03-04T19:32:11.292Z,8.70
2018-03-04T19:34:38.818Z,8.60
2018-03-04T19:37:06.342Z,8.70
2018-03-04T19:39:33.923Z,8.60
2018-03-04T19:42:01.412Z,8.60
2018-03-04T19:44:29.659Z,8.80
2018-03-04T19:46:57.251Z,8.80
2018-03-04T19:49:24.832Z,8.80
2018-03-04T19:51:53.086Z,8.70
2018-03-04T19:54:20.587Z,8.70
2018-03-04T19:56:49.691Z,8.60
2018-03-04T19:59:17.267Z,8.60
2018-03-04T20:01:44.835Z,8.60
2018-03-04T20:04:12.415Z,8.60
2018-03-04T20:06:40.727Z,8.60
2018-03-04T20:09:08.227Z,8.60
2018-03-04T20:11:35.704Z,8.60
2018-03-04T20:14:03.211Z,8.60
2018-03-04T20:16:30.709Z,8.60
2018-03-04T20:18:58.284Z,8.50
2018-03-04T20:21:25.855Z,8.50
2018-03-04T20:23:53.341Z,8.50
2018-03-04T20:26:20.865Z,8.40
2018-03-04T20:28:48.329Z,8.40
2018-03-04T20:31:15.902Z,8.40
2018-03-04T20:33:43.384Z,8.40
2018-03-04T20:36:11.632Z,8.50
2018-03-04T20:38:39.141Z,8.50
2018-03-04T20:41:06.620Z,8.50
2018-03-04T20:43:34.890Z,8.50
2018-03-04T20:46:02.464Z,8.40
2018-03-04T20:48:30.040Z,8.50
2018-03-04T20:50:57.538Z,8.50
2018-03-04T20:53:25.021Z,8.50
2018-03-04T20:55:52.522Z,8.50
2018-03-04T20:58:20.028Z,8.50
2018-03-04T21:00:47.527Z,8.70
2018-03-04T21:03:15.007Z,8.70
2018-03-04T21:05:42.589Z,8.70
2018-03-04T21:08:10.150Z,8.70
2018-03-04T21:10:37.681Z,8.80
2018-03-04T21:13:05.183Z,8.70
2018-03-04T21:15:32.663Z,8.80
2018-03-04T21:18:00.156Z,8.80
2018-03-04T21:20:27.632Z,8.80
2018-03-04T21:22:55.231Z,8.80
2018-03-04T21:25:22.815Z,8.80
2018-03-04T21:27:50.291Z,8.80
2018-03-04T21:30:18.554Z,8.80
2018-03-04T21:32:46.032Z,8.80
2018-03-04T21:35:13.523Z,8.80
2018-03-04T21:37:41.795Z,8.80
2018-03-04T21:40:09.297Z,8.80
2018-03-04T21:42:36.835Z,8.80
2018-03-04T21:45:04.408Z,8.80
2018-03-04T21:47:31.895Z,8.80
2018-03-04T21:50:00.160Z,8.80
2018-03-04T21:52:27.649Z,8.80
2018-03-04T21:54:55.892Z,8.80
2018-03-04T21:57:23.407Z,8.70
2018-03-04T21:59:50.904Z,8.80
2018-03-04T22:02:18.400Z,8.80
2018-03-04T22:04:45.912Z,8.80
2018-03-04T22:07:13.396Z,8.90
2018-03-04T22:09:41.779Z,8.90
2018-03-04T22:12:10.025Z,8.90
2018-03-04T22:14:37.503Z,8.90
2018-03-04T22:17:05.023Z,8.90
2018-03-04T22:19:33.296Z,8.90
2018-03-04T22:22:00.865Z,8.90
2018-03-04T22:24:28.348Z,8.90
2018-03-04T22:26:56.654Z,8.90
2018-03-04T22:29:24.294Z,8.90
2018-03-04T22:31:51.772Z,9.00
2018-03-04T22:34:19.343Z,9.00
2018-03-04T22:36:46.911Z,9.00
2018-03-04T22:39:14.516Z,9.00
2018-03-04T22:41:42.056Z,8.90
2018-03-04T22:44:09.678Z,8.90
2018-03-04T22:46:37.156Z,8.90
2018-03-04T22:49:04.672Z,8.90
2018-03-04T22:51:32.260Z,9.00
2018-03-04T22:54:00.521Z,9.00
2018-03-04T22:56:28.011Z,9.00
2018-03-04T22:58:55.498Z,9.00
2018-03-04T23:01:22.992Z,9.00
2018-03-04T23:03:50.493Z,9.00
2018-03-04T23:06:17.971Z,9.00
2018-03-04T23:08:45.467Z,9.00
2018-03-04T23:11:13.730Z,9.00
2018-03-04T23:13:41.220Z,9.00
2018-03-04T23:16:09.511Z,8.90
2018-03-04T23:18:37.775Z,8.80
2018-03-04T23:21:05.251Z,8.80
2018-03-04T23:23:32.727Z,8.80
2018-03-04T23:26:00.207Z,8.70
2018-03-04T23:28:28.482Z,8.60
2018-03-04T23:30:55.971Z,8.60
2018-03-04T23:33:24.232Z,8.60
2018-03-04T23:35:51.815Z,8.60
2018-03-04T23:38:19.322Z,8.60
2018-03-04T23:40:46.863Z,8.60
2018-03-04T23:43:14.359Z,8.50
2018-03-04T23:45:42.595Z,8.40
2018-03-04T23:48:10.083Z,8.40
2018-03-04T23:50:37.556Z,8.40
2018-03-04T23:53:05.052Z,8.30
2018-03-04T23:55:33.319Z,8.30
2018-03-04T23:58:01.556Z,8.30
